Time;durP1;ratioP1;P1;durP2;ratioP2;P2;SDS_P1;SDS_P2;PMS_P1;PMS_P2;Temp;Humidity;BMP_temperature;BMP_pressure;BME280_temperature;BME280_humidity;BME280_pressure;Samples;Min_cycle;Max_cycle;Signal;HPM_P1;HPM_P2
2022/10/10 00:01:28;;;;;;;12.20;4.65;;;10.00;99.90;;;;;;5032954;28;20531;-54
2022/10/10 00:03:54;;;;;;;8.60;4.57;;;10.10;99.90;;;;;;5032765;28;20503;-50
2022/10/10 00:06:21;;;;;;;7.07;3.80;;;10.10;99.90;;;;;;5032290;28;20057;-51
2022/10/10 00:08:47;;;;;;;6.70;3.40;;;10.00;99.90;;;;;;5032619;28;20038;-47
2022/10/10 00:11:15;;;;;;;7.25;3.58;;;10.00;99.90;;;;;;5032647;28;20033;-55
2022/10/10 00:13:41;;;;;;;7.55;3.75;;;10.00;99.90;;;;;;5032597;28;20113;-54
2022/10/10 00:16:07;;;;;;;6.68;4.05;;;10.00;99.90;;;;;;5032546;28;20156;-52
2022/10/10 00:18:33;;;;;;;7.10;4.00;;;9.90;99.90;;;;;;5032396;28;20113;-51
2022/10/10 00:20:59;;;;;;;8.23;4.63;;;9.80;99.90;;;;;;5032336;28;20600;-52
2022/10/10 00:23:24;;;;;;;7.45;4.13;;;9.80;99.90;;;;;;5032490;28;20022;-48
2022/10/10 00:25:50;;;;;;;8.13;4.00;;;9.80;99.90;;;;;;5032549;28;20033;-50
2022/10/10 00:28:16;;;;;;;8.93;4.07;;;9.80;99.90;;;;;;5030708;28;20025;-47
2022/10/10 00:30:43;;;;;;;9.00;4.10;;;9.80;99.90;;;;;;5032358;28;20119;-47
2022/10/10 00:33:08;;;;;;;8.05;4.28;;;9.80;99.90;;;;;;5032310;28;20029;-47
2022/10/10 00:35:34;;;;;;;7.70;4.40;;;9.90;99.90;;;;;;5031997;28;20115;-49
2022/10/10 00:38:00;;;;;;;7.22;4.13;;;9.90;99.90;;;;;;5032111;28;20053;-46
2022/10/10 00:40:26;;;;;;;8.05;4.18;;;9.90;99.90;;;;;;5032232;28;20100;-48
2022/10/10 00:42:52;;;;;;;7.28;4.13;;;10.00;99.90;;;;;;5031243;28;20104;-46
2022/10/10 00:45:26;;;;;;;6.70;3.90;;;10.10;99.90;;;;;;5031970;28;20129;-46
2022/10/10 00:47:59;;;;;;;7.03;3.63;;;10.20;99.90;;;;;;5031581;28;20026;-46
2022/10/10 00:50:27;;;;;;;5.95;3.63;;;10.20;99.90;;;;;;5031937;28;20045;-47
2022/10/10 00:52:53;;;;;;;8.75;3.45;;;10.30;99.90;;;;;;5031630;28;20040;-55
2022/10/10 00:55:19;;;;;;;11.13;3.30;;;10.40;99.90;;;;;;5031746;28;20033;-51
2022/10/10 00:57:45;;;;;;;5.78;3.00;;;10.50;99.90;;;;;;5031388;28;20021;-50
2022/10/10 01:00:12;;;;;;;4.80;2.65;;;10.60;99.90;;;;;;5031857;28;20449;-51
2022/10/10 01:02:37;;;;;;;6.75;2.53;;;10.70;99.90;;;;;;5030148;28;20033;-48
2022/10/10 01:05:04;;;;;;;6.18;2.80;;;10.70;99.90;;;;;;5031475;28;20608;-53
2022/10/10 01:07:30;;;;;;;5.18;3.15;;;10.80;99.90;;;;;;5029903;28;20536;-49
2022/10/10 01:10:00;;;;;;;4.15;2.63;;;10.90;99.90;;;;;;5031552;28;20033;-52
2022/10/10 01:12:38;;;;;;;6.03;3.08;;;11.00;99.90;;;;;;5031052;28;20025;-54
2022/10/10 01:15:21;;;;;;;4.93;2.65;;;11.00;99.90;;;;;;5031509;28;20025;-47
2022/10/10 01:17:58;;;;;;;5.28;2.47;;;11.10;99.90;;;;;;5031215;28;20029;-53
2022/10/10 01:20:36;;;;;;;6.75;2.72;;;11.20;99.90;;;;;;5031400;28;20129;-54
2022/10/10 01:23:12;;;;;;;6.90;3.90;;;11.20;99.90;;;;;;5029464;28;20056;-51
2022/10/10 01:25:40;;;;;;;7.00;4.18;;;11.20;99.90;;;;;;5031080;28;20032;-48
2022/10/10 01:28:27;;;;;;;7.85;4.55;;;11.00;99.90;;;;;;5031002;28;20108;-47
2022/10/10 01:30:55;;;;;;;4.78;3.30;;;10.90;99.90;;;;;;5031290;28;20055;-51
2022/10/10 01:33:47;;;;;;;5.88;3.80;;;10.90;99.90;;;;;;5030885;28;20508;-56
2022/10/10 01:36:21;;;;;;;6.45;3.83;;;10.80;99.90;;;;;;5030790;28;20049;-52
2022/10/10 01:39:13;;;;;;;7.35;3.70;;;10.70;99.90;;;;;;5031106;28;20052;-49
2022/10/10 01:41:46;;;;;;;8.45;4.45;;;10.60;99.90;;;;;;5030676;28;20029;-55
2022/10/10 01:44:12;;;;;;;10.75;4.78;;;10.60;99.90;;;;;;5017885;28;20021;-47
2022/10/10 01:46:37;;;;;;;8.35;4.25;;;10.50;99.90;;;;;;5029684;28;20032;-49
2022/10/10 01:49:03;;;;;;;8.38;3.97;;;10.50;99.90;;;;;;5030753;28;20036;-47
2022/10/10 01:52:06;;;;;;;6.68;4.00;;;10.60;99.90;;;;;;5030988;28;20279;-47
2022/10/10 01:54:37;;;;;;;7.30;3.50;;;10.60;99.90;;;;;;5017444;28;20084;-48
2022/10/10 01:57:20;;;;;;;8.27;3.50;;;10.60;99.90;;;;;;5030351;28;20021;-47
2022/10/10 01:59:49;;;;;;;7.60;3.50;;;10.70;99.90;;;;;;5030962;28;20488;-54
2022/10/10 02:02:37;;;;;;;8.45;3.50;;;10.70;99.90;;;;;;5030955;28;20377;-51
2022/10/10 02:05:05;;;;;;;6.47;3.28;;;10.80;99.90;;;;;;5030561;28;20065;-48
2022/10/10 02:07:36;;;;;;;6.97;3.67;;;10.80;99.90;;;;;;5030507;28;20053;-48
2022/10/10 02:10:05;;;;;;;6.68;3.50;;;10.90;99.90;;;;;;5030927;28;20033;-48
2022/10/10 02:12:32;;;;;;;7.43;3.50;;;10.90;99.90;;;;;;5030263;28;20034;-47
2022/10/10 02:15:10;;;;;;;5.53;3.60;;;10.90;99.90;;;;;;5030821;28;20029;-47
2022/10/10 02:17:38;;;;;;;6.20;3.17;;;10.90;99.90;;;;;;5030401;28;20045;-48
2022/10/10 02:20:06;;;;;;;7.50;3.70;;;10.90;99.90;;;;;;5030834;28;20032;-47
2022/10/10 02:22:34;;;;;;;4.93;3.00;;;10.90;99.90;;;;;;5030446;28;20033;-49
2022/10/10 02:25:00;;;;;;;8.07;3.10;;;11.00;99.90;;;;;;5030741;28;20029;-49
2022/10/10 02:27:28;;;;;;;6.97;3.03;;;11.00;99.90;;;;;;5028438;28;20033;-51
2022/10/10 02:29:57;;;;;;;6.63;3.22;;;11.00;99.90;;;;;;5030356;28;20041;-50
2022/10/10 02:32:50;;;;;;;5.45;2.90;;;11.00;99.90;;;;;;5030009;28;20490;-51
2022/10/10 02:35:26;;;;;;;5.40;2.72;;;11.00;99.90;;;;;;5030476;28;20033;-50
2022/10/10 02:37:53;;;;;;;5.22;2.63;;;11.00;99.90;;;;;;5029733;28;20022;-51
2022/10/10 02:40:26;;;;;;;6.40;2.80;;;11.10;99.90;;;;;;5030509;28;20571;-55
2022/10/10 02:42:52;;;;;;;6.95;2.78;;;11.10;99.90;;;;;;5030030;28;20026;-52
2022/10/10 02:45:19;;;;;;;6.85;2.65;;;11.20;99.90;;;;;;5030561;28;20033;-51
2022/10/10 02:47:45;;;;;;;5.10;2.78;;;11.20;99.90;;;;;;5030296;28;20025;-53
2022/10/10 02:50:11;;;;;;;5.25;3.30;;;11.10;99.90;;;;;;5030610;28;20041;-49
2022/10/10 02:52:37;;;;;;;8.02;2.83;;;11.10;99.90;;;;;;5030140;28;20022;-54
2022/10/10 02:55:03;;;;;;;8.70;2.80;;;10.90;99.90;;;;;;5030191;28;20075;-53
2022/10/10 02:57:29;;;;;;;4.97;3.20;;;11.00;99.90;;;;;;5030194;28;20017;-55
2022/10/10 02:59:54;;;;;;;5.75;2.95;;;11.00;99.90;;;;;;5030432;28;20040;-53
2022/10/10 03:02:20;;;;;;;9.63;2.80;;;11.00;99.90;;;;;;5030102;28;20026;-51
2022/10/10 03:04:45;;;;;;;6.25;2.67;;;11.10;99.90;;;;;;5030087;28;20046;-51
2022/10/10 03:07:11;;;;;;;9.73;3.90;;;11.10;99.90;;;;;;5031043;28;20091;-55
2022/10/10 03:09:37;;;;;;;7.28;3.75;;;11.10;99.90;;;;;;5033570;28;20045;-52
2022/10/10 03:12:03;;;;;;;7.70;4.15;;;11.10;99.90;;;;;;5033499;28;20043;-49
2022/10/10 03:14:29;;;;;;;6.70;3.30;;;11.10;99.90;;;;;;5033885;28;20017;-51
2022/10/10 03:16:55;;;;;;;5.45;3.28;;;11.10;99.90;;;;;;5033593;28;20048;-48
2022/10/10 03:19:20;;;;;;;9.75;3.50;;;11.10;99.90;;;;;;5033705;28;20044;-47
2022/10/10 03:21:46;;;;;;;7.88;3.45;;;11.10;99.90;;;;;;5033575;28;20033;-52
2022/10/10 03:24:11;;;;;;;5.43;3.03;;;11.10;99.90;;;;;;5033555;28;20492;-50
2022/10/10 03:26:37;;;;;;;5.45;2.97;;;11.20;99.90;;;;;;5033281;28;20121;-50
2022/10/10 03:29:03;;;;;;;6.22;2.90;;;11.20;99.90;;;;;;5033364;28;20033;-51
2022/10/10 03:31:29;;;;;;;4.35;2.65;;;11.30;99.90;;;;;;5033387;28;20079;-51
2022/10/10 03:33:55;;;;;;;4.90;3.00;;;11.30;99.90;;;;;;5033293;28;20105;-51
2022/10/10 03:36:22;;;;;;;8.32;3.00;;;11.40;99.90;;;;;;5033254;28;20101;-49
2022/10/10 03:38:47;;;;;;;7.88;2.90;;;11.40;99.90;;;;;;5033075;28;20025;-52
2022/10/10 03:41:13;;;;;;;5.25;2.72;;;11.50;99.90;;;;;;5033326;28;20361;-48
2022/10/10 03:43:39;;;;;;;7.45;3.63;;;11.50;99.90;;;;;;5033083;28;20028;-50
2022/10/10 03:46:05;;;;;;;9.48;3.00;;;11.60;99.90;;;;;;5033146;28;20048;-49
2022/10/10 03:48:30;;;;;;;8.40;3.30;;;11.60;99.90;;;;;;5033269;28;20021;-52
2022/10/10 03:50:56;;;;;;;8.18;3.42;;;11.60;99.90;;;;;;5032867;28;20120;-48
2022/10/10 03:53:22;;;;;;;6.18;3.40;;;11.60;99.90;;;;;;5032987;28;20020;-50
2022/10/10 03:55:47;;;;;;;5.63;2.90;;;11.70;99.90;;;;;;5032841;28;20029;-53
2022/10/10 03:58:13;;;;;;;4.57;2.63;;;11.70;99.90;;;;;;5032906;28;20036;-47
2022/10/10 04:00:38;;;;;;;8.48;4.28;;;11.70;99.90;;;;;;5033045;28;20029;-47
2022/10/10 04:03:05;;;;;;;10.07;3.40;;;11.70;99.90;;;;;;5032750;28;20052;-48
2022/10/10 04:05:40;;;;;;;7.70;3.20;;;11.60;99.90;;;;;;5032535;28;20045;-52
2022/10/10 04:08:06;;;;;;;8.88;3.53;;;11.70;99.90;;;;;;5031339;28;20029;-47
2022/10/10 04:10:31;;;;;;;5.32;3.30;;;11.60;99.90;;;;;;5032846;28;20029;-54
2022/10/10 04:12:57;;;;;;;5.85;3.03;;;11.60;99.90;;;;;;5032347;28;20021;-47
2022/10/10 04:15:24;;;;;;;9.00;3.10;;;11.60;99.90;;;;;;5032763;28;20032;-47
2022/10/10 04:17:50;;;;;;;6.43;2.83;;;11.50;99.90;;;;;;5031781;28;20026;-47
2022/10/10 04:20:16;;;;;;;6.13;2.67;;;11.60;99.90;;;;;;5032501;28;20052;-52
2022/10/10 04:22:43;;;;;;;8.80;3.10;;;11.60;99.90;;;;;;5032518;28;20535;-55
2022/10/10 04:25:10;;;;;;;5.38;2.78;;;11.70;99.90;;;;;;5032501;28;20472;-48
2022/10/10 04:27:36;;;;;;;7.13;2.90;;;11.70;99.90;;;;;;5032207;28;20030;-50
2022/10/10 04:30:03;;;;;;;6.25;3.40;;;11.80;99.90;;;;;;5032221;28;20035;-47
2022/10/10 04:32:29;;;;;;;6.60;2.85;;;11.80;99.90;;;;;;5032436;28;20021;-55
2022/10/10 04:34:54;;;;;;;7.25;3.30;;;11.80;99.90;;;;;;5032348;28;20048;-47
2022/10/10 04:37:20;;;;;;;8.02;3.50;;;11.80;99.90;;;;;;5032262;28;20018;-53
2022/10/10 04:39:45;;;;;;;7.38;3.17;;;11.90;99.90;;;;;;5032284;28;20030;-47
2022/10/10 04:42:11;;;;;;;6.28;3.38;;;11.90;99.90;;;;;;5031851;28;20603;-50
2022/10/10 04:44:37;;;;;;;7.07;3.35;;;11.90;99.90;;;;;;5032152;28;20033;-50
2022/10/10 04:47:03;;;;;;;5.68;3.10;;;11.90;99.90;;;;;;5032005;28;20029;-52
2022/10/10 04:49:28;;;;;;;6.43;3.10;;;11.90;99.90;;;;;;5031735;28;20037;-50
2022/10/10 04:51:54;;;;;;;5.28;2.97;;;12.00;99.90;;;;;;5030744;28;20029;-53
2022/10/10 04:54:19;;;;;;;5.63;3.15;;;11.80;99.90;;;;;;5030443;28;20112;-52
2022/10/10 04:56:45;;;;;;;6.50;2.90;;;11.80;99.90;;;;;;5031821;28;20037;-47
2022/10/10 04:59:11;;;;;;;6.88;3.03;;;11.90;99.90;;;;;;5031641;28;20397;-47
2022/10/10 05:01:36;;;;;;;7.55;2.75;;;11.90;99.90;;;;;;5031768;28;20017;-50
2022/10/10 05:04:03;;;;;;;8.48;2.92;;;12.00;99.90;;;;;;5031665;28;20115;-53
2022/10/10 05:06:29;;;;;;;5.55;2.90;;;12.00;99.90;;;;;;5031180;28;20121;-52
2022/10/10 05:08:54;;;;;;;5.68;2.50;;;12.10;99.90;;;;;;5031602;28;20037;-53
2022/10/10 05:11:20;;;;;;;6.50;2.55;;;12.10;99.90;;;;;;5031295;28;20116;-51
2022/10/10 05:13:46;;;;;;;8.50;2.78;;;12.20;99.90;;;;;;5031595;28;20052;-48
2022/10/10 05:16:11;;;;;;;7.30;2.70;;;12.30;99.90;;;;;;5031376;28;20029;-48
2022/10/10 05:18:37;;;;;;;4.53;2.50;;;12.30;99.90;;;;;;5031510;28;20017;-48
2022/10/10 05:21:05;;;;;;;4.50;2.35;;;12.30;99.90;;;;;;5031439;28;20408;-54
2022/10/10 05:23:32;;;;;;;7.53;2.83;;;12.30;99.90;;;;;;5031425;28;20021;-49
2022/10/10 05:25:57;;;;;;;6.32;2.90;;;12.30;99.90;;;;;;5031520;28;20061;-47
2022/10/10 05:28:23;;;;;;;5.47;2.67;;;12.30;99.90;;;;;;5031040;28;20472;-51
2022/10/10 05:30:51;;;;;;;6.35;3.17;;;12.30;99.90;;;;;;5030980;28;20013;-47
2022/10/10 05:33:16;;;;;;;5.43;2.95;;;12.30;99.90;;;;;;5031101;28;20029;-49
2022/10/10 05:35:42;;;;;;;7.65;2.80;;;12.30;99.90;;;;;;5030955;28;20036;-47
2022/10/10 05:38:08;;;;;;;5.43;2.92;;;12.20;99.90;;;;;;5031286;28;20083;-51
2022/10/10 05:40:33;;;;;;;7.53;3.08;;;12.20;99.90;;;;;;5031161;28;20392;-48
2022/10/10 05:42:59;;;;;;;6.95;3.15;;;12.10;99.90;;;;;;5031006;28;20082;-49
2022/10/10 05:45:25;;;;;;;5.85;2.60;;;12.10;99.90;;;;;;5031310;28;20033;-53
2022/10/10 05:47:50;;;;;;;7.47;3.47;;;12.10;99.90;;;;;;5030844;28;20380;-47
2022/10/10 05:50:34;;;;;;;6.25;2.78;;;12.10;99.90;;;;;;5031094;28;20112;-53
2022/10/10 05:53:01;;;;;;;6.63;3.38;;;12.20;99.90;;;;;;5030970;28;20029;-48
2022/10/10 05:55:26;;;;;;;8.13;3.05;;;12.20;99.90;;;;;;5031060;28;20033;-48
2022/10/10 05:57:52;;;;;;;5.93;3.03;;;12.20;99.90;;;;;;5029132;28;20068;-50
2022/10/10 06:00:18;;;;;;;8.10;3.35;;;12.30;99.90;;;;;;5030923;28;20065;-48
2022/10/10 06:02:43;;;;;;;6.82;3.05;;;12.30;99.90;;;;;;5030757;28;20029;-49
2022/10/10 06:05:09;;;;;;;7.25;3.60;;;12.30;99.90;;;;;;5030443;28;20041;-49
2022/10/10 06:07:35;;;;;;;9.85;4.40;;;12.40;99.90;;;;;;5030705;28;20530;-52
2022/10/10 06:10:01;;;;;;;15.55;8.75;;;12.50;99.90;;;;;;5030547;28;20065;-47
2022/10/10 06:12:27;;;;;;;7.32;3.63;;;12.50;99.90;;;;;;5030475;28;20030;-47
2022/10/10 06:14:52;;;;;;;6.80;3.13;;;12.40;99.90;;;;;;5030594;28;20096;-48
2022/10/10 06:17:18;;;;;;;7.18;3.10;;;12.40;99.90;;;;;;5030617;28;20391;-47
2022/10/10 06:19:43;;;;;;;5.00;2.72;;;12.40;99.90;;;;;;5030246;28;20446;-47
2022/10/10 06:22:09;;;;;;;10.10;3.30;;;12.50;99.90;;;;;;5030683;28;20029;-51
2022/10/10 06:24:35;;;;;;;6.95;2.80;;;12.50;99.90;;;;;;5030110;28;20018;-52
2022/10/10 06:27:00;;;;;;;5.60;2.72;;;12.50;99.90;;;;;;5030357;28;20017;-49
2022/10/10 06:29:26;;;;;;;7.68;2.72;;;12.60;99.90;;;;;;5030439;28;20116;-53
2022/10/10 06:31:52;;;;;;;6.70;2.95;;;12.60;99.90;;;;;;5030097;28;20431;-48
2022/10/10 06:34:18;;;;;;;8.48;3.30;;;12.60;99.90;;;;;;5030541;28;20038;-48
2022/10/10 06:36:43;;;;;;;5.13;2.83;;;12.70;99.90;;;;;;5028402;28;20028;-52
2022/10/10 06:39:09;;;;;;;5.35;2.90;;;12.70;99.90;;;;;;5028909;28;20070;-51
2022/10/10 06:41:35;;;;;;;6.28;2.75;;;12.70;99.90;;;;;;5031200;28;20028;-47
2022/10/10 06:44:00;;;;;;;7.15;2.92;;;12.70;99.90;;;;;;5033730;28;20083;-52
2022/10/10 06:46:26;;;;;;;6.88;2.78;;;12.80;99.90;;;;;;5033857;28;20053;-48
2022/10/10 06:48:52;;;;;;;7.22;2.88;;;12.80;99.90;;;;;;5033915;28;20040;-48
2022/10/10 06:51:17;;;;;;;6.00;2.75;;;12.90;99.90;;;;;;5033616;28;20026;-48
2022/10/10 06:53:44;;;;;;;8.85;2.92;;;12.90;99.90;;;;;;5034267;28;20087;-47
2022/10/10 06:56:19;;;;;;;6.55;2.65;;;12.90;99.90;;;;;;5033919;28;20021;-52
2022/10/10 06:58:47;;;;;;;5.82;2.63;;;12.90;99.90;;;;;;5033749;28;20475;-47
2022/10/10 07:01:13;;;;;;;11.00;3.17;;;13.00;99.90;;;;;;5033555;28;20037;-49
2022/10/10 07:03:39;;;;;;;5.22;2.92;;;13.00;99.90;;;;;;5033788;28;20538;-47
2022/10/10 07:06:08;;;;;;;5.10;2.65;;;13.00;99.90;;;;;;5033323;28;20046;-50
2022/10/10 07:08:33;;;;;;;6.35;3.22;;;13.10;99.90;;;;;;5033721;28;20068;-47
2022/10/10 07:10:59;;;;;;;8.32;3.42;;;13.10;99.90;;;;;;5033482;28;20053;-52
2022/10/10 07:13:25;;;;;;;7.55;3.58;;;13.10;99.90;;;;;;5033440;28;20029;-48
2022/10/10 07:15:50;;;;;;;8.68;3.40;;;13.20;99.90;;;;;;5033871;28;20028;-50
2022/10/10 07:18:17;;;;;;;8.32;4.38;;;13.20;99.90;;;;;;5033707;28;20067;-51
2022/10/10 07:20:43;;;;;;;8.80;4.13;;;13.20;99.90;;;;;;5033423;28;20439;-48
2022/10/10 07:23:08;;;;;;;9.07;4.10;;;13.20;99.90;;;;;;5033364;28;20033;-53
2022/10/10 07:25:37;;;;;;;10.40;4.30;;;13.20;99.90;;;;;;5033193;28;20022;-51
2022/10/10 07:28:03;;;;;;;8.77;3.92;;;13.20;99.90;;;;;;5033003;28;20033;-50
2022/10/10 07:30:28;;;;;;;10.02;4.18;;;13.20;99.90;;;;;;5032984;28;20038;-48
2022/10/10 07:32:55;;;;;;;9.10;5.65;;;13.20;99.90;;;;;;5032314;28;20028;-51
2022/10/10 07:35:21;;;;;;;5.97;3.38;;;13.20;99.90;;;;;;5033283;28;20029;-47
2022/10/10 07:37:47;;;;;;;8.73;4.20;;;13.20;99.90;;;;;;5019623;28;20060;-47
2022/10/10 07:40:13;;;;;;;6.38;3.80;;;13.20;99.90;;;;;;5033473;28;20044;-47
2022/10/10 07:42:39;;;;;;;9.02;3.60;;;13.30;99.90;;;;;;5032100;28;20033;-47
2022/10/10 07:45:05;;;;;;;5.80;3.63;;;13.20;99.90;;;;;;5033217;28;20022;-48
2022/10/10 07:47:31;;;;;;;8.98;4.15;;;13.30;99.90;;;;;;5033159;28;20037;-48
2022/10/10 07:49:57;;;;;;;6.90;3.95;;;13.30;99.90;;;;;;5031266;28;20048;-47
2022/10/10 07:52:22;;;;;;;7.22;3.75;;;13.30;99.90;;;;;;5031047;28;20088;-47
2022/10/10 07:54:48;;;;;;;7.72;4.22;;;13.30;99.90;;;;;;5031270;28;20021;-46
2022/10/10 07:57:13;;;;;;;8.45;4.05;;;13.30;99.90;;;;;;5031298;28;20033;-47
2022/10/10 07:59:39;;;;;;;7.55;3.92;;;13.30;99.90;;;;;;5031152;28;20428;-50
2022/10/10 08:02:05;;;;;;;9.02;4.45;;;13.40;99.90;;;;;;5030110;28;20013;-50
2022/10/10 08:04:31;;;;;;;9.23;4.28;;;13.30;99.90;;;;;;5031912;28;20051;-48
2022/10/10 08:06:56;;;;;;;7.85;4.60;;;13.30;99.90;;;;;;5032685;28;20404;-49
2022/10/10 08:09:23;;;;;;;8.35;3.60;;;13.30;99.90;;;;;;5032688;28;20048;-53
2022/10/10 08:11:49;;;;;;;7.95;3.80;;;13.30;99.90;;;;;;5032759;28;20029;-53
2022/10/10 08:14:14;;;;;;;8.52;3.80;;;13.30;99.90;;;;;;5032546;28;20063;-47
2022/10/10 08:16:40;;;;;;;7.10;2.97;;;13.40;99.90;;;;;;5032365;28;20021;-51
2022/10/10 08:19:06;;;;;;;6.88;2.70;;;13.40;99.90;;;;;;5032625;28;20042;-49
2022/10/10 08:21:31;;;;;;;6.50;2.63;;;13.40;99.90;;;;;;5032558;28;20508;-53
2022/10/10 08:23:57;;;;;;;4.75;2.70;;;13.40;99.90;;;;;;5032582;28;20025;-51
2022/10/10 08:26:22;;;;;;;6.28;2.92;;;13.40;99.90;;;;;;5032335;28;20044;-48
2022/10/10 08:28:48;;;;;;;5.78;3.50;;;13.50;99.90;;;;;;5032274;28;20088;-50
2022/10/10 08:31:17;;;;;;;5.90;3.05;;;13.40;99.90;;;;;;5030066;28;20023;-47
2022/10/10 08:33:44;;;;;;;6.23;3.70;;;13.50;99.90;;;;;;5031385;28;20057;-46
2022/10/10 08:36:16;;;;;;;7.57;3.58;;;13.30;99.90;;;;;;5031138;28;20278;-46
2022/10/10 08:38:42;;;;;;;4.82;3.10;;;13.20;99.90;;;;;;5031717;28;20480;-47
2022/10/10 08:41:31;;;;;;;6.88;2.72;;;13.10;99.90;;;;;;5031499;28;20037;-46
2022/10/10 08:44:02;;;;;;;6.35;2.08;;;13.10;99.90;;;;;;5029531;28;20029;-49
2022/10/10 08:47:08;;;;;;;6.07;2.22;;;13.00;99.90;;;;;;5034146;28;20021;-49
2022/10/10 08:49:34;;;;;;;8.25;1.73;;;12.90;99.90;;;;;;5008250;28;20034;-47
2022/10/10 08:52:13;;;;;;;6.15;1.92;;;12.80;99.90;;;;;;5027634;28;20546;-49
2022/10/10 08:54:41;;;;;;;4.70;1.80;;;12.90;99.90;;;;;;5031452;28;20026;-47
2022/10/10 08:57:21;;;;;;;3.47;1.50;;;12.90;99.90;;;;;;5029059;28;20034;-47
2022/10/10 08:59:47;;;;;;;7.85;1.50;;;12.90;99.90;;;;;;5028151;28;20025;-53
2022/10/10 09:02:24;;;;;;;3.17;1.08;;;12.80;99.90;;;;;;5031776;28;20056;-46
2022/10/10 09:04:49;;;;;;;8.85;2.58;;;12.90;99.90;;;;;;5031346;28;20045;-49
2022/10/10 09:07:35;;;;;;;8.20;1.50;;;12.90;99.90;;;;;;5031787;28;20025;-49
2022/10/10 09:10:20;;;;;;;4.07;1.52;;;12.90;99.90;;;;;;5025222;28;20069;-52
2022/10/10 09:12:49;;;;;;;5.20;1.65;;;13.30;99.90;;;;;;5031451;28;20082;-50
2022/10/10 09:15:21;;;;;;;6.15;1.55;;;13.90;99.90;;;;;;5035657;28;20021;-47
2022/10/10 09:18:01;;;;;;;9.23;1.42;;;14.50;99.90;;;;;;5045019;28;20025;-48
2022/10/10 09:20:42;;;;;;;8.98;1.50;;;14.70;99.90;;;;;;5047914;28;20040;-52
2022/10/10 09:23:16;;;;;;;8.13;1.55;;;14.40;99.90;;;;;;5037465;28;20029;-49
2022/10/10 09:25:54;;;;;;;6.45;1.13;;;14.20;99.90;;;;;;5032252;28;20025;-47
2022/10/10 09:28:51;;;;;;;5.30;1.35;;;14.00;99.90;;;;;;5033515;28;20026;-47
2022/10/10 09:31:21;;;;;;;4.82;1.23;;;13.70;99.90;;;;;;5034295;28;20029;-51
2022/10/10 09:34:18;;;;;;;6.10;1.58;;;13.50;99.90;;;;;;5033578;28;20021;-50
2022/10/10 09:36:46;;;;;;;7.15;1.25;;;13.40;99.90;;;;;;5032499;28;20062;-50
2022/10/10 09:39:24;;;;;;;5.38;1.05;;;13.30;99.90;;;;;;5037205;28;20132;-48
2022/10/10 09:41:58;;;;;;;5.20;1.25;;;13.30;99.90;;;;;;5036323;28;20033;-46
2022/10/10 09:44:24;;;;;;;4.18;1.00;;;13.20;99.90;;;;;;5030846;28;20030;-48
2022/10/10 09:46:50;;;;;;;9.48;1.85;;;13.00;99.90;;;;;;5030465;28;20064;-47
2022/10/10 09:49:17;;;;;;;7.85;1.60;;;12.90;99.90;;;;;;5029992;28;20037;-47
2022/10/10 09:51:44;;;;;;;7.22;1.20;;;12.90;99.90;;;;;;5030809;28;20017;-47
2022/10/10 09:54:11;;;;;;;6.97;1.75;;;12.90;99.90;;;;;;5029209;28;20044;-50
2022/10/10 09:56:50;;;;;;;8.25;1.40;;;12.90;99.90;;;;;;5028736;28;20100;-47
2022/10/10 09:59:43;;;;;;;8.02;1.70;;;12.90;99.90;;;;;;5029075;28;20401;-46
2022/10/10 10:02:13;;;;;;;4.50;1.10;;;12.80;99.90;;;;;;5028946;28;20030;-47
2022/10/10 10:04:39;;;;;;;4.70;1.02;;;12.90;99.90;;;;;;5029095;28;20378;-50
2022/10/10 10:07:26;;;;;;;6.18;1.40;;;13.20;99.90;;;;;;5028477;28;20021;-50
2022/10/10 10:10:01;;;;;;;7.28;1.35;;;13.70;99.90;;;;;;5041889;28;20040;-53
2022/10/10 10:12:46;;;;;;;6.28;1.58;;;14.10;99.90;;;;;;5022911;28;20127;-49
2022/10/10 10:15:21;;;;;;;5.80;1.45;;;14.50;99.90;;;;;;5018171;28;20029;-51
2022/10/10 10:18:11;;;;;;;5.78;0.95;;;14.80;99.90;;;;;;5033086;28;20037;-49
2022/10/10 10:20:40;;;;;;;7.05;1.52;;;15.30;99.90;;;;;;5033887;28;20036;-50
2022/10/10 10:23:22;;;;;;;6.03;1.05;;;15.70;99.90;;;;;;5033594;28;20026;-54
2022/10/10 10:25:57;;;;;;;3.75;0.98;;;16.20;99.90;;;;;;5023889;28;20392;-49
2022/10/10 10:28:23;;;;;;;8.00;1.77;;;16.80;99.90;;;;;;5032831;28;20025;-51
2022/10/10 10:30:52;;;;;;;7.13;1.23;;;17.60;99.90;;;;;;5034657;28;20038;-50
2022/10/10 10:33:37;;;;;;;7.80;1.40;;;18.20;99.90;;;;;;5034564;28;20028;-52
2022/10/10 10:36:46;;;;;;;7.18;1.17;;;18.20;99.90;;;;;;5025580;28;20025;-55
2022/10/10 10:39:33;;;;;;;8.40;1.30;;;18.00;99.90;;;;;;5009868;28;20033;-50
2022/10/10 10:42:30;;;;;;;8.90;1.67;;;17.90;99.90;;;;;;5024862;28;20037;-48
2022/10/10 10:45:01;;;;;;;6.85;1.15;;;17.50;99.90;;;;;;5021685;28;20477;-51
2022/10/10 10:48:12;;;;;;;5.75;1.38;;;17.00;99.90;;;;;;5032586;28;20075;-48
2022/10/10 10:50:55;;;;;;;11.32;1.88;;;16.70;99.90;;;;;;5024116;28;20034;-54
2022/10/10 10:53:26;;;;;;;6.05;1.27;;;16.30;99.90;;;;;;5035611;28;20030;-52
2022/10/10 10:56:34;;;;;;;6.50;1.20;;;16.40;99.90;;;;;;5037049;28;20025;-49
2022/10/10 10:59:26;;;;;;;10.30;1.60;;;16.80;99.90;;;;;;5026766;28;20095;-51
2022/10/10 11:02:27;;;;;;;7.72;1.23;;;18.40;99.90;;;;;;5033325;28;20480;-50
2022/10/10 11:05:25;;;;;;;7.82;1.40;;;19.20;99.90;;;;;;5021101;28;20080;-50
2022/10/10 11:08:21;;;;;;;8.32;2.47;;;19.50;99.90;;;;;;5033093;28;20172;-55
2022/10/10 11:11:18;;;;;;;6.78;1.50;;;20.80;99.90;;;;;;5032984;28;20033;-50
2022/10/10 11:14:00;;;;;;;5.65;1.50;;;21.80;98.10;;;;;;5032879;28;20480;-52
2022/10/10 11:16:45;;;;;;;5.65;1.60;;;22.90;96.60;;;;;;5033172;28;20029;-49
2022/10/10 11:19:25;;;;;;;6.55;1.52;;;23.80;92.00;;;;;;5031972;28;20029;-49
2022/10/10 11:22:07;;;;;;;7.72;1.75;;;23.20;91.90;;;;;;5032590;28;20022;-46
2022/10/10 11:24:50;;;;;;;7.72;1.65;;;23.30;94.90;;;;;;5031750;28;20026;-51
2022/10/10 11:27:34;;;;;;;5.18;1.55;;;23.60;93.90;;;;;;5028990;28;20404;-52
2022/10/10 11:30:16;;;;;;;10.52;2.20;;;24.00;92.30;;;;;;5022967;28;20030;-52
2022/10/10 11:32:52;;;;;;;7.72;1.92;;;24.00;91.50;;;;;;5015364;28;20014;-49
2022/10/10 11:35:24;;;;;;;8.02;1.52;;;23.00;87.50;;;;;;5013824;28;20044;-51
2022/10/10 11:37:58;;;;;;;8.10;1.50;;;22.80;91.10;;;;;;5014486;28;20479;-49
2022/10/10 11:40:34;;;;;;;6.13;1.33;;;22.90;89.80;;;;;;5013232;28;20029;-49
2022/10/10 11:43:05;;;;;;;8.30;1.35;;;22.90;91.40;;;;;;5030319;28;20025;-49
2022/10/10 11:45:35;;;;;;;7.82;1.27;;;23.20;88.20;;;;;;5031637;28;20033;-48
2022/10/10 11:48:24;;;;;;;5.88;1.45;;;23.70;88.10;;;;;;5031560;28;20033;-52
2022/10/10 11:50:58;;;;;;;7.10;1.85;;;24.10;85.70;;;;;;5030986;28;20038;-46
2022/10/10 11:53:40;;;;;;;7.10;1.52;;;24.80;83.80;;;;;;5031577;28;20037;-49
2022/10/10 11:56:14;;;;;;;6.30;1.75;;;25.20;82.30;;;;;;5029817;28;20392;-53
2022/10/10 11:58:49;;;;;;;8.23;2.03;;;25.20;79.60;;;;;;5030952;28;20022;-54
2022/10/10 12:01:24;;;;;;;8.55;2.08;;;25.50;76.00;;;;;;5030729;28;20061;-50
2022/10/10 12:03:51;;;;;;;7.15;1.73;;;26.10;76.80;;;;;;5030532;28;20013;-49
2022/10/10 12:06:17;;;;;;;5.75;1.42;;;26.30;70.30;;;;;;5032552;28;20396;-50
2022/10/10 12:09:09;;;;;;;7.50;1.95;;;26.40;73.70;;;;;;5032589;28;20021;-49
2022/10/10 12:12:01;;;;;;;5.43;1.50;;;26.80;69.80;;;;;;5026057;28;20065;-52
2022/10/10 12:14:30;;;;;;;7.47;1.45;;;27.20;70.00;;;;;;5031654;28;20025;-53
2022/10/10 12:16:57;;;;;;;5.72;1.33;;;27.20;66.70;;;;;;5031460;28;20096;-53
2022/10/10 12:19:26;;;;;;;7.07;1.30;;;26.60;64.60;;;;;;5031424;28;20523;-53
2022/10/10 12:21:59;;;;;;;5.53;1.30;;;26.00;68.60;;;;;;5031047;28;20037;-51
2022/10/10 12:24:31;;;;;;;7.95;2.03;;;25.80;73.30;;;;;;5028843;28;20060;-50
2022/10/10 12:26:56;;;;;;;6.72;1.58;;;25.50;72.40;;;;;;5031107;28;20021;-52
2022/10/10 12:30:08;;;;;;;7.10;1.58;;;24.10;72.50;;;;;;5031077;28;20083;-51
2022/10/10 12:32:42;;;;;;;5.18;1.30;;;23.30;73.30;;;;;;5030926;28;20032;-55
2022/10/10 12:35:30;;;;;;;6.90;1.58;;;22.80;79.20;;;;;;5031067;28;20034;-50
2022/10/10 12:38:04;;;;;;;5.22;1.15;;;22.40;74.80;;;;;;5031321;28;20017;-53
2022/10/10 12:40:31;;;;;;;7.25;1.48;;;22.00;74.30;;;;;;5030875;28;20072;-54
2022/10/10 12:43:18;;;;;;;7.15;1.75;;;21.60;76.00;;;;;;5031798;28;20029;-48
2022/10/10 12:46:07;;;;;;;7.47;1.80;;;21.10;74.80;;;;;;5028323;28;20100;-51
2022/10/10 12:48:33;;;;;;;6.07;1.50;;;21.10;79.50;;;;;;5018263;28;20049;-51
2022/10/10 12:51:00;;;;;;;6.10;1.85;;;20.60;73.40;;;;;;5031125;28;20033;-52
2022/10/10 12:53:29;;;;;;;6.25;1.70;;;20.70;75.40;;;;;;5031458;28;20036;-51
2022/10/10 12:55:59;;;;;;;5.15;1.90;;;20.60;77.50;;;;;;5031357;28;20029;-52
2022/10/10 12:58:27;;;;;;;5.85;1.70;;;20.40;75.90;;;;;;5030376;28;20021;-53
2022/10/10 13:00:57;;;;;;;6.32;2.13;;;20.40;74.90;;;;;;5031406;28;20029;-48
2022/10/10 13:03:26;;;;;;;4.13;1.20;;;20.30;74.40;;;;;;5013994;28;20105;-51
2022/10/10 13:05:53;;;;;;;6.00;1.17;;;20.20;73.00;;;;;;5032594;28;20396;-50
2022/10/10 13:08:29;;;;;;;6.40;1.23;;;20.20;77.10;;;;;;5033202;28;20459;-51